Flight Track Log - Related Links

Times and Time Zones

All times are in EDT time to prevent confusion due to time zone crossing. See the UCA3596 flight status page for this flight to view local times or setup timezone preferences in your user account.

Time Position Orientation Groundspeed Altitude Reporting Facility
EDT Latitude Longitude Course Direction KTS MPH feet Rate Location/Type
Fri 02:57:26 PM 42.2283 -76.0106 228° Southwest 133 153 2,800  Level New York Center
Fri 02:58:27 PM 42.2017 -76.0503 228° Southwest 119 137 3,900 1,261 Climbing New York Center
Fri 02:59:25 PM 42.1583 -76.0833 209° Southwest 153 176 5,300 1,412 Climbing New York Center
Fri 03:00:26 PM 42.1172 -76.1219 215° Southwest 168 193 6,700 1,350 Climbing New York Center
Fri 03:01:25 PM 42.0739 -76.1603 213° Southwest 179 206 8,000 1,400 Climbing New York Center
Fri 03:02:26 PM 42.0283 -76.1983 212° Southwest 190 219 9,500 1,438 Climbing New York Center
Fri 03:03:26 PM 41.9894 -76.2314 212° Southwest 195 224 10,900 1,322 Climbing New York Center
Fri 03:04:24 PM 41.9419 -76.2694 211° Southwest 190 219 12,100 1,039 Climbing New York Center
Fri 03:06:25 PM 41.8464 -76.3506 212° Southwest 197 227 14,000 626 Climbing New York Center
Fri 03:07:26 PM 41.7942 -76.3964 213° Southwest 211 243 14,000  Level New York Center
Fri 03:08:26 PM 41.7381 -76.4417 211° Southwest 246 283 14,000  Level New York Center
Fri 03:09:26 PM 41.6750 -76.4944 212° Southwest 252 290 14,000  Level New York Center
Fri 03:10:24 PM 41.6164 -76.5422 211° Southwest 252 290 14,000  Level New York Center
Fri 03:11:25 PM 41.5578 -76.5928 213° Southwest 252 290 14,000 149 Level New York Center
Fri 03:12:25 PM 41.5014 -76.6378 211° Southwest 257 296 14,300 700 Climbing New York Center
Fri 03:13:25 PM 41.4494 -76.6803 212° Southwest 245 282 15,400 1,082 Climbing New York Center
Fri 03:14:27 PM 41.3928 -76.7306 214° Southwest 233 268 16,500 800 Climbing New York Center
Fri 03:15:25 PM 41.3428 -76.7703 211° Southwest 227 261 17,000 254 Climbing New York Center
Fri 03:16:25 PM 41.2769 -76.7922 194° South 227 261 17,000  Level New York Center
Fri 03:17:25 PM 41.2056 -76.8050 188° South 251 289 17,000  Level New York Center
Fri 03:18:26 PM 41.1333 -76.8317 196° South 265 305 17,000  Level New York Center
Fri 03:19:26 PM 41.0683 -76.8783 208° Southwest 265 305 17,000  Level New York Center
Fri 03:20:24 PM 41.0036 -76.9219 207° Southwest 265 305 17,000  Level New York Center
Fri 03:21:25 PM 40.9325 -76.9264 183° South 256 295 17,000  Level New York Center
Fri 03:22:25 PM 40.8650 -76.9039 166° South 268 308 17,000  Level New York Center
Fri 03:23:26 PM 40.7803 -76.8908 173° South 278 320 17,000  Level New York Center
Fri 03:24:26 PM 40.7144 -76.9122 194° South 272 313 17,000  Level New York Center
Fri 03:25:26 PM 40.6342 -76.9353 192° South 280 322 17,000  Level New York Center
Fri 03:26:27 PM 40.5664 -76.9536 192° South 280 322 17,000  Level New York Center
Fri 03:27:24 PM 40.4858 -76.9792 194° South 280 322 17,000  Level New York Center
Fri 03:28:25 PM 40.4203 -77.0006 194° South 280 322 17,000 -393 Level New York Center
Fri 03:29:26 PM 40.3375 -77.0258 193° South 285 328 16,200 -843 Descending New York Center
Fri 03:30:26 PM 40.2675 -77.0467 193° South 285 328 15,300 -992 Descending New York Center
Fri 03:31:27 PM 40.1828 -77.0744 194° South 285 328 14,200 -1,016 Descending New York Center
Fri 03:33:29 PM 40.0167 -77.1167 191° South 276 318 12,200 -989 Descending Potomac TRACON
Fri 03:34:29 PM 39.9500 -77.1500 201° Southwest 276 318 11,200 -850 Descending Potomac TRACON
Fri 03:35:29 PM 39.8833 -77.1833 201° Southwest 280 322 10,500 -600 Descending Potomac TRACON
Fri 03:36:29 PM 39.8000 -77.2333 205° Southwest 277 319 10,000 -496 Descending Potomac TRACON
Fri 03:37:30 PM 39.7333 -77.2667 201° Southwest 271 312 9,500 -470 Descending Potomac TRACON
Fri 03:38:24 PM 39.6833 -77.3000 207° Southwest 271 312 9,100 -400 Descending Potomac TRACON
Fri 03:39:30 PM 39.6000 -77.3500 205° Southwest 272 313 8,700 -520 Descending Potomac TRACON
Fri 03:40:31 PM 39.5167 -77.3500 180° South 279 321 8,000 -678 Descending Potomac TRACON
Fri 03:41:25 PM 39.4500 -77.3667 191° South 275 316 7,400 -793 Descending Potomac TRACON
Fri 03:42:32 PM 39.3667 -77.3667 180° South 265 305 6,400 -942 Descending Potomac TRACON
Fri 03:43:26 PM 39.3000 -77.3667 180° South 265 305 5,500 -947 Descending Potomac TRACON
Fri 03:44:26 PM 39.2333 -77.3667 180° South 259 298 4,600 -709 Descending Potomac TRACON
Fri 03:45:33 PM 39.1500 -77.3500 171° South 251 289 4,000 -298 Descending Potomac TRACON
Fri 03:46:27 PM 39.0833 -77.3500 180° South 252 290 4,000  Level Potomac TRACON
Fri 03:47:27 PM 39.0167 -77.3500 180° South 254 292 4,000  Level Potomac TRACON
Fri 03:48:27 PM 38.9500 -77.3500 180° South 252 290 4,000 -50 Level Potomac TRACON
Fri 03:49:28 PM 38.8833 -77.3500 180° South 252 290 3,900 -744 Descending Potomac TRACON
Fri 03:50:28 PM 38.8167 -77.3833 201° Southwest 241 277 2,500 -1,053 Descending Potomac TRACON
Fri 03:51:22 PM 38.8333 -77.4333 293° West 173 199 1,900 -730 Descending Potomac TRACON
Fri 03:52:23 PM 38.8833 -77.4333 360° North 155 178 1,100 -787 Descending Potomac TRACON

Login

Don't have an account? Register now (free) for customized features, flight alerts, and more!